Latest Weather Observations for Lucas Heights

IDN60801

Issued at 3:03 am EDT Tuesday 23 December 2014 (issued every 30 minutes, with the page automatically refreshed every 10 minutes)

About weather observations | Map of weather stations | Latest weather observations for NSW | Other Formats
Station Details ID: 066023 Name: LUCAS HEIGHTS AWS Lat: -34.05 Lon: 150.98 Height: 140.0 m
Data from the previous 72 hours. | See also: Recent months for locations in New South Wales
Date/Time
EDT
Temp
°C
App
Temp
°C
Dew
Point
Rel
Hum
%
Delta-T
°C
Wind Press
QNH
hPa
Press
MSL
hPa
Rain
since 9 am
mm
Dir
 
Spd
km/h
Gust
km/h
Spd
kts
Gust
kts
23/02:45am 20.5 - 22.4 - - NE 13 19 7 10 1014.8 - 0.0
23/02:30am 20.4 - 22.3 - - NNE 7 13 4 7 1015.0 - 0.0
23/02:15am 20.4 - 22.3 - - NNE 13 20 7 11 1015.0 - 0.0
23/02:00am 20.4 - 22.3 - - NNE 13 19 7 10 1015.1 - 0.0
23/01:45am 20.4 - 22.3 - - NNE 13 19 7 10 1015.2 - 0.0
23/01:30am 20.6 - 22.4 - - NNE 15 24 8 13 1015.4 - 0.0
23/01:15am 20.5 - 22.2 - - - 17 26 9 14 1015.5 - 0.0
23/01:00am 20.7 - 22.4 - - NNE 19 33 10 18 1015.1 - 0.0
23/12:45am 20.8 - 22.4 - - NNE 22 33 12 18 1014.9 - 0.0
23/12:30am 20.9 - 22.4 - - NE 24 35 13 19 1015.1 - 0.0
23/12:15am 21.0 - 22.5 - - NE 24 37 13 20 1015.3 - 0.0
23/12:00am 21.0 - 22.5 - - NE 22 33 12 18 1015.4 - 0.0
 
Date/Time
EDT
Temp
°C
App
Temp
°C
Dew
Point
Rel
Hum
%
Delta-T
°C
Wind Press
QNH
hPa
Press
MSL
hPa
Rain
since 9 am
mm
Dir
 
Spd
km/h
Gust
km/h
Spd
kts
Gust
kts
22/11:45pm 21.0 - 22.6 - - NNE 17 28 9 15 1015.6 - 0.0
22/11:30pm 21.1 - 22.6 - - NNE 20 32 11 17 1015.8 - 0.0
22/11:15pm 21.1 - 22.7 - - NNE 19 28 10 15 1016.0 - 0.0
22/11:00pm 21.2 - 22.8 - - NNE 20 33 11 18 1015.9 - 0.0
22/10:45pm 21.2 - 22.8 - - NNE 22 35 12 19 1016.0 - 0.0
22/10:30pm 21.3 - 22.8 - - NNE 20 32 11 17 1015.8 - 0.0
22/10:15pm 21.4 - 22.9 - - NE 22 33 12 18 1015.7 - 0.0
22/10:00pm 21.4 - 23.0 - - NE 17 28 9 15 1015.8 - 0.0
22/09:45pm 21.4 - 23.1 - - NE 15 22 8 12 1015.7 - 0.0
22/09:30pm 21.5 - 23.1 - - NE 13 19 7 10 1015.7 - 0.0
22/09:15pm 21.6 - 23.1 - - NNE 13 28 7 15 1015.9 - 0.0
22/09:00pm 21.6 - 23.1 - - NNE 17 26 9 14 1015.8 - 0.0
22/08:45pm 21.6 - 23.1 - - NNE 15 30 8 16 1015.8 - 0.0
22/08:30pm 21.7 - 23.2 - - NNE 17 24 9 13 1015.6 - 0.0
22/08:15pm 21.8 - 23.4 - - NE 19 32 10 17 1015.5 - 0.0
22/08:00pm 21.8 - 23.4 - - NNE 19 30 10 16 1015.6 - 0.0
22/07:45pm 21.8 - 23.5 - - NNE 19 33 10 18 1015.6 - 0.0
22/07:30pm 21.9 - 23.6 - - NNE 22 35 12 19 1015.7 - 0.0
22/07:15pm 22.1 - 23.6 - - NNE 24 37 13 20 1015.5 - 0.0
22/07:00pm 22.7 - 23.8 - - NE 30 43 16 23 1014.9 - 0.0
22/06:45pm 23.2 - 24.1 - - NE 28 39 15 21 1014.7 - 0.0
22/06:30pm 23.6 - 24.4 - - NE 19 35 10 19 1015.0 - 0.0
22/06:15pm 23.9 - 24.6 - - ENE 19 24 10 13 1015.0 - 0.0
22/06:00pm 24.1 - 24.7 - - NE 13 22 7 12 1015.0 - 0.0
22/05:45pm 24.2 - 24.8 - - NNE 13 19 7 10 1015.2 - 0.0
22/05:30pm 24.5 - 24.9 - - NNE 17 22 9 12 1015.2 - 0.0
22/05:15pm 24.5 - 24.7 - - NNE 19 32 10 17 1015.0 - 0.0
22/05:00pm 24.8 25.4 24.8 100 0.0 NNE 30 43 16 23 1015.2 - 0.0
22/04:45pm 24.9 26.7 24.8 99 0.1 NE 24 33 13 18 1015.0 - 0.0
22/04:30pm 25.9 28.3 25.2 96 0.5 NE 22 35 12 19 1014.7 - 0.0
22/04:15pm 26.2 28.3 25.3 95 0.6 NE 24 41 13 22 1014.4 - 0.0
22/04:00pm 26.5 28.6 25.4 94 0.8 NE 24 41 13 22 1014.4 - 0.0
22/03:45pm 26.1 28.4 25.1 94 0.7 NE 22 35 12 19 1014.5 - 0.0
22/03:30pm 26.6 27.7 25.0 91 1.1 NE 28 39 15 21 1014.6 - 0.0
22/03:15pm 26.9 27.8 25.3 91 1.1 ENE 30 39 16 21 1014.8 - 0.0
22/03:00pm 26.6 23.7 18.0 59 5.5 ENE 30 41 16 22 1014.8 - 0.0
22/02:45pm 27.0 24.2 18.2 58 5.6 ENE 30 39 16 21 1014.9 - 0.0
22/02:30pm 26.8 24.2 17.7 57 5.8 NE 28 37 15 20 1014.8 - 0.0
22/02:15pm 27.6 26.2 18.8 58 5.7 ENE 24 37 13 20 1014.9 - 0.0
22/02:00pm 27.2 25.4 18.8 60 5.4 ENE 26 35 14 19 1015.2 - 0.0
22/01:45pm 27.4 26.9 19.1 60 5.4 ENE 20 32 11 17 1015.4 - 0.0
22/01:30pm 27.5 26.6 19.0 59 5.5 ENE 22 32 12 17 1015.5 - 0.0
22/01:15pm 27.6 27.3 19.2 60 5.5 ENE 19 28 10 15 1015.6 - 0.0
22/01:00pm 27.6 27.4 19.3 60 5.4 ENE 19 28 10 15 1015.7 - 0.0
22/12:45pm 27.8 28.1 19.5 60 5.4 ENE 17 24 9 13 1015.9 - 0.0
22/12:30pm 27.7 27.9 19.3 60 5.5 ENE 17 24 9 13 1016.0 - 0.0
22/12:15pm 27.8 27.7 18.7 57 5.9 ENE 17 24 9 13 1016.1 - 0.0
22/12:00pm 28.2 29.2 18.7 56 6.1 ENE 11 22 6 12 1016.2 - 0.0
22/11:45am 26.9 27.5 17.7 57 5.8 NNE 11 19 6 10 1016.2 - 0.0
22/11:30am 27.2 28.5 18.5 59 5.6 NNE 9 17 5 9 1016.3 - 0.0
22/11:15am 26.6 28.0 18.7 62 5.1 NNE 9 17 5 9 1016.4 - 0.0
22/11:00am 26.0 28.0 18.8 64 4.6 NNE 6 11 3 6 1016.5 - 0.0
22/10:45am 25.5 27.2 18.5 65 4.5 - 7 13 4 7 1016.7 - 0.0
22/10:30am 25.1 27.1 18.8 68 4.0 N 6 15 3 8 1016.8 - 0.0
22/10:15am 24.5 25.8 18.4 69 3.9 N 9 17 5 9 1016.8 - 0.0
22/10:00am 24.1 25.0 18.4 70 3.6 N 11 22 6 12 1016.7 - 0.0
22/09:45am 23.9 25.3 18.6 72 3.4 NNW 9 17 5 9 1016.9 - 0.0
22/09:30am 23.4 25.4 18.7 75 3.0 N 6 9 3 5 1016.8 - 0.0
22/09:15am 22.6 24.4 18.2 76 2.8 NW 6 11 3 6 1016.9 - 0.0
22/09:00am 22.5 24.3 18.4 77 2.6 NNW 6 13 3 7 1016.8 - 0.0
22/08:45am 21.8 23.5 18.1 79 2.3 NNE 6 9 3 5 1016.8 - 0.0
22/08:30am 21.4 22.5 17.9 80 2.2 N 9 15 5 8 1016.8 - 0.0
22/08:15am 21.2 22.7 18.1 82 1.9 N 7 11 4 6 1016.5 - 0.0
22/08:00am 20.7 22.5 18.2 85 1.6 N 6 11 3 6 1016.3 - 0.0
22/07:45am 20.4 21.6 18.3 88 1.3 N 9 15 5 8 1016.3 - 0.0
22/07:30am 20.0 21.2 18.2 89 1.1 N 9 15 5 8 1016.3 - 0.0
22/07:15am 19.5 21.2 18.0 91 0.9 N 6 11 3 6 1016.1 - 0.0
22/07:00am 18.8 20.3 17.5 92 0.8 N 6 9 3 5 1016.0 - 0.0
22/06:45am 17.8 18.6 16.4 91 0.8 N 7 9 4 5 1015.9 - 0.0
22/06:30am 17.4 18.0 15.9 91 0.9 NNE 7 9 4 5 1015.8 - 0.0
22/06:15am 17.3 18.1 15.8 91 0.9 NNE 6 7 3 4 1015.7 - 0.0
22/06:00am 17.3 18.1 15.8 91 0.9 NE 6 9 3 5 1015.4 - 0.0
22/05:45am 17.5 18.3 15.9 90 0.9 NE 6 7 3 4 1015.3 - 0.0
22/05:30am 17.5 18.3 15.9 90 0.9 ENE 6 7 3 4 1015.0 - 0.0
22/05:15am 17.6 17.5 16.0 90 1.0 NE 11 13 6 7 1014.7 - 0.0
22/05:00am 17.7 18.0 16.0 90 1.0 NE 9 13 5 7 1014.7 - 0.0
22/04:45am 17.6 18.3 16.0 90 1.0 ENE 7 9 4 5 1014.7 - 0.0
22/04:30am 17.7 18.4 16.0 90 1.0 ENE 7 9 4 5 1014.6 - 0.0
22/04:15am 17.9 18.6 16.2 90 1.0 ENE 7 9 4 5 1014.7 - 0.0
22/04:00am 18.0 18.8 16.3 90 1.0 NE 7 9 4 5 1014.8 - 0.0
22/03:45am 18.0 18.7 16.2 89 1.1 NE 7 9 4 5 1015.0 - 0.0
22/03:30am 18.1 18.8 16.2 89 1.1 NE 7 9 4 5 1015.0 - 0.0
22/03:15am 18.3 18.7 16.4 89 1.1 NE 9 9 5 5 1015.1 - 0.0
22/03:00am 18.5 19.4 16.6 89 1.1 NE 7 9 4 5 1015.3 - 0.0
22/02:45am 18.6 19.5 16.6 88 1.2 NNE 7 9 4 5 1015.6 - 0.0
22/02:30am 18.7 19.6 16.7 88 1.2 NNE 7 9 4 5 1015.6 - 0.0
22/02:15am 18.7 19.6 16.6 87 1.3 NNE 7 9 4 5 1015.7 - 0.0
22/02:00am 18.9 20.0 16.7 87 1.3 NE 6 9 3 5 1015.6 - 0.0
22/01:45am 19.2 19.8 16.9 86 1.4 NNE 9 11 5 6 1015.8 - 0.0
22/01:30am 19.3 20.0 17.0 86 1.4 NNE 9 13 5 7 1015.9 - 0.0
22/01:15am 19.1 19.3 16.7 86 1.5 NE 11 15 6 8 1015.8 - 0.0
22/01:00am 19.4 19.7 17.1 86 1.4 NE 11 17 6 9 1016.0 - 0.0
22/12:45am 19.3 19.9 16.9 86 1.5 NE 9 15 5 8 1016.2 - 0.0
22/12:30am 19.2 19.8 16.7 85 1.5 N 9 13 5 7 1016.4 - 0.0
22/12:15am 19.4 20.0 16.8 85 1.6 N 9 13 5 7 1016.4 - 0.0
22/12:00am 19.6 20.2 16.9 84 1.6 NNE 9 13 5 7 1016.4 - 0.0
 
Date/Time
EDT
Temp
°C
App
Temp
°C
Dew
Point
Rel
Hum
%
Delta-T
°C
Wind Press
QNH
hPa
Press
MSL
hPa
Rain
since 9 am
mm
Dir
 
Spd
km/h
Gust
km/h
Spd
kts
Gust
kts
21/11:45pm 19.8 20.1 17.0 84 1.7 NNE 11 17 6 9 1016.4 - 0.0
21/11:30pm 20.0 20.4 17.2 84 1.7 NNE 11 19 6 10 1016.5 - 0.0
21/11:15pm 20.1 20.1 17.2 83 1.8 NNE 13 20 7 11 1016.4 - 0.0
21/11:00pm 20.0 20.0 17.1 83 1.8 NNE 13 19 7 10 1016.7 - 0.0
21/10:45pm 20.2 20.2 17.2 83 1.8 NNE 13 17 7 9 1016.7 - 0.0
21/10:30pm 20.4 20.4 17.3 82 1.9 NE 13 22 7 12 1016.7 - 0.0
21/10:15pm 20.5 20.5 17.3 82 2.0 NNE 13 20 7 11 1016.8 - 0.0
21/10:00pm 20.6 20.3 17.3 81 2.0 NNE 15 22 8 12 1016.9 - 0.0
21/09:45pm 20.8 20.1 17.4 81 2.1 NNE 17 24 9 13 1016.9 - 0.0
21/09:30pm 20.9 20.2 17.4 80 2.2 NNE 17 32 9 17 1016.8 - 0.0
21/09:15pm 20.9 20.2 17.4 80 2.2 NNE 17 26 9 14 1016.6 - 0.0
21/09:00pm 21.0 19.9 17.4 80 2.2 NNE 19 28 10 15 1016.3 - 0.0
21/08:45pm 21.1 20.4 17.3 79 2.3 NE 17 26 9 14 1016.1 - 0.0
21/08:30pm 21.2 20.1 17.2 78 2.5 NE 19 28 10 15 1015.9 - 0.0
21/08:15pm 21.4 19.7 17.2 77 2.6 NE 22 33 12 18 1015.6 - 0.0
21/08:00pm 21.7 20.3 17.1 75 2.8 NE 20 32 11 17 1015.5 - 0.0
21/07:45pm 21.9 20.2 17.1 74 3.0 NE 22 32 12 17 1015.4 - 0.0
21/07:30pm 22.3 20.1 17.0 72 3.3 NE 24 35 13 19 1015.2 - 0.0
21/07:15pm 22.6 20.4 17.0 70 3.5 NE 24 37 13 20 1015.0 - 0.0
21/07:00pm 23.1 20.1 16.9 68 3.8 NE 28 39 15 21 1014.9 - 0.0
21/06:45pm 23.4 20.8 16.9 67 4.0 NE 26 37 14 20 1014.8 - 0.0
21/06:30pm 24.0 22.2 17.0 65 4.3 NE 22 37 12 20 1014.9 - 0.0
21/06:15pm 24.1 22.3 17.0 64 4.4 ENE 22 32 12 17 1014.9 - 0.0
21/06:00pm 24.4 22.2 17.0 63 4.6 ENE 24 33 13 18 1014.8 - 0.0
21/05:45pm 24.6 22.8 17.0 62 4.7 NE 22 32 12 17 1014.7 - 0.0
21/05:30pm 24.9 23.1 17.0 61 4.9 ENE 22 33 12 18 1014.7 - 0.0
21/05:15pm 24.9 22.7 17.0 61 4.9 ENE 24 33 13 18 1014.8 - 0.0
21/05:00pm 25.1 23.7 17.1 61 5.0 NE 20 32 11 17 1014.7 - 0.0
21/04:45pm 25.4 23.2 17.0 59 5.2 NE 24 32 13 17 1014.8 - 0.0
21/04:30pm 25.8 24.1 17.2 59 5.4 NE 22 35 12 19 1014.9 - 0.0
21/04:15pm 25.7 23.9 17.0 58 5.4 NE 22 33 12 18 1014.9 - 0.0
21/04:00pm 25.8 24.1 17.1 58 5.4 NE 22 32 12 17 1015.0 - 0.0
21/03:45pm 26.1 24.4 17.3 58 5.5 ENE 22 32 12 17 1015.3 - 0.0
21/03:30pm 26.2 24.5 17.3 58 5.6 ENE 22 33 12 18 1015.5 - 0.0
21/03:15pm 26.2 24.5 17.3 58 5.6 ENE 22 33 12 18 1015.6 - 0.0
21/03:00pm 26.5 24.9 17.4 57 5.7 ENE 22 33 12 18 1015.6 - 0.0
21/02:45pm 26.5 25.0 17.6 58 5.6 ENE 22 33 12 18 1015.6 - 0.0
21/02:30pm 26.3 24.2 17.2 57 5.7 ENE 24 33 13 18 1015.7 - 0.0
21/02:15pm 26.8 25.7 17.7 57 5.8 ENE 20 32 11 17 1015.9 - 0.0
21/02:00pm 26.4 25.6 17.2 57 5.8 ENE 17 26 9 14 1016.3 - 0.0
21/01:45pm 26.6 26.2 17.2 56 5.9 NE 15 28 8 15 1016.4 - 0.0
21/01:30pm 26.2 26.0 16.6 55 6.0 NE 13 24 7 13 1016.8 - 0.0
21/01:15pm 25.8 26.4 16.7 57 5.7 NE 9 22 5 12 1017.1 - 0.0
21/01:00pm 25.3 25.7 16.3 57 5.5 NE 9 19 5 10 1017.3 - 0.0
21/12:45pm 25.0 24.5 16.0 57 5.5 NE 13 22 7 12 1017.4 - 0.0
21/12:30pm 25.2 25.5 16.1 57 5.6 NNE 9 22 5 12 1017.6 - 0.0
21/12:15pm 25.3 25.0 16.4 57 5.5 NE 13 24 7 13 1017.8 - 0.0
21/12:00pm 24.3 23.8 16.0 60 5.1 NE 13 24 7 13 1017.9 - 0.0
21/11:45am 23.9 24.1 15.7 60 5.0 NNE 9 19 5 10 1017.9 - 0.0
21/11:30am 24.0 23.4 15.6 59 5.1 N 13 22 7 12 1017.8 - 0.0
21/11:15am 23.9 23.3 15.6 59 5.0 NNE 13 30 7 16 1017.7 - 0.0
21/11:00am 23.9 23.9 16.2 62 4.7 N 11 22 6 12 1017.9 - 0.0
21/10:45am 22.9 22.7 15.6 63 4.4 NW 11 19 6 10 1018.1 - 0.0
21/10:30am 22.8 22.6 15.7 64 4.3 N 11 24 6 13 1018.1 - 0.0
21/10:15am 22.3 21.3 15.7 66 4.0 NNE 15 22 8 12 1018.2 - 0.0
21/10:00am 22.2 20.8 15.6 66 4.0 N 17 24 9 13 1018.3 - 0.0
21/09:45am 22.0 21.0 15.7 67 3.8 N 15 24 8 13 1018.4 - 0.0
21/09:30am 21.8 22.1 16.0 69 3.5 N 9 22 5 12 1018.5 - 0.0
21/09:15am 21.3 21.6 16.0 72 3.2 - 9 19 5 10 1018.6 - 0.0
21/09:00am 21.0 21.2 15.8 72 3.1 N 9 19 5 10 1018.6 - 0.0
21/08:45am 20.7 21.3 15.7 73 3.0 NNW 7 15 4 8 1018.5 - 0.0
21/08:30am 20.4 20.9 15.6 74 2.9 NNW 7 17 4 9 1018.5 - 0.0
21/08:15am 20.2 20.9 15.5 74 2.8 NNW 6 11 3 6 1018.5 - 0.0
21/08:00am 19.8 20.3 15.1 74 2.8 NW 6 9 3 5 1018.4 - 0.0
21/07:45am 19.9 21.1 15.9 78 2.4 WNW 4 7 2 4 1018.2 - 0.0
21/07:30am 18.5 19.7 15.8 84 1.6 W 4 6 2 3 1018.1 - 0.0
21/07:15am 17.0 18.2 15.0 88 1.2 W 2 4 1 2 1018.0 - 0.0
21/07:00am 15.4 16.2 13.8 90 0.9 WSW 2 4 1 2 1017.9 - 0.0
21/06:45am 14.2 14.3 12.6 90 0.9 SW 4 4 2 2 1017.8 - 0.0
21/06:30am 13.6 13.5 12.0 90 0.9 SW 4 4 2 2 1017.8 - 0.0
21/06:15am 12.9 12.6 11.3 90 0.9 WSW 4 4 2 2 1017.7 - 0.0
21/06:00am 12.8 12.4 11.1 89 0.9 WSW 4 4 2 2 1017.7 - 0.0
21/05:45am 13.0 12.7 11.3 89 0.9 WSW 4 6 2 3 1017.6 - 0.0
21/05:30am 13.0 13.0 11.2 89 1.0 W 2 4 1 2 1017.5 - 0.0
21/05:15am 13.0 13.4 11.3 89 0.9 CALM 0 4 0 2 1017.3 - 0.0
21/05:00am 13.0 13.0 11.2 89 1.0 WSW 2 4 1 2 1017.3 - 0.0
21/04:45am 13.1 13.1 11.3 89 1.0 SW 2 4 1 2 1017.3 - 0.0
21/04:30am 13.2 13.6 11.3 88 1.0 CALM 0 2 0 1 1017.3 - 0.0
21/04:15am 13.3 13.7 11.4 88 1.0 CALM 0 2 0 1 1017.2 - 0.0
21/04:00am 13.4 13.9 11.5 88 1.0 CALM 0 0 0 0 1017.2 - 0.0
21/03:45am 13.5 14.0 11.5 88 1.1 CALM 0 2 0 1 1017.2 - 0.0
21/03:30am 13.5 14.0 11.5 88 1.1 CALM 0 2 0 1 1017.3 - 0.0
21/03:15am 13.8 14.0 11.7 87 1.1 NW 2 2 1 1 1017.5 - 0.0
21/03:00am 14.0 14.6 11.9 87 1.1 CALM 0 2 0 1 1017.5 - 0.0
21/02:45am 14.1 14.7 11.9 86 1.2 CALM 0 2 0 1 1017.6 - 0.0
21/02:30am 14.0 14.6 11.8 86 1.2 CALM 0 0 0 0 1017.6 - 0.0
21/02:15am 14.1 14.7 11.8 86 1.2 CALM 0 0 0 0 1017.8 - 0.0
21/02:00am 14.2 14.4 11.8 85 1.3 N 2 4 1 2 1017.9 - 0.0
21/01:45am 14.3 14.5 11.8 85 1.4 NNW 2 4 1 2 1018.1 - 0.0
21/01:30am 14.5 14.7 11.9 84 1.4 NW 2 4 1 2 1018.2 - 0.0
21/01:15am 14.6 14.8 11.8 83 1.5 NW 2 4 1 2 1018.4 - 0.0
21/01:00am 14.8 15.4 12.0 83 1.5 CALM 0 4 0 2 1018.6 - 0.0
21/12:45am 14.9 15.5 12.0 83 1.6 CALM 0 0 0 0 1018.7 - 0.0
21/12:30am 15.3 15.6 12.2 82 1.7 N 2 4 1 2 1018.7 - 0.0
21/12:15am 15.6 15.2 12.3 81 1.8 NNE 6 7 3 4 1018.8 - 0.0
21/12:00am 15.8 15.4 12.4 80 1.9 NE 6 7 3 4 1019.0 - 0.0
 
Date/Time
EDT
Temp
°C
App
Temp
°C
Dew
Point
Rel
Hum
%
Delta-T
°C
Wind Press
QNH
hPa
Press
MSL
hPa
Rain
since 9 am
mm
Dir
 
Spd
km/h
Gust
km/h
Spd
kts
Gust
kts
20/11:45pm 16.0 15.5 12.5 80 1.9 NE 7 7 4 4 1019.2 - 0.0
20/11:30pm 16.2 15.7 12.5 79 2.1 NE 7 9 4 5 1019.0 - 0.0
20/11:15pm 16.6 16.1 12.6 77 2.2 NE 7 9 4 5 1019.0 - 0.0
20/11:00pm 17.0 16.5 12.6 75 2.5 NE 7 9 4 5 1018.9 - 0.0
20/10:45pm 17.4 17.0 12.9 75 2.5 NE 7 9 4 5 1018.9 - 0.0
20/10:30pm 17.4 16.6 12.9 75 2.5 NE 9 11 5 6 1018.8 - 0.0
20/10:15pm 17.2 16.3 12.7 75 2.5 NE 9 13 5 7 1018.8 - 0.0
20/10:00pm 17.5 16.7 12.8 74 2.6 NE 9 13 5 7 1018.7 - 0.0
20/09:45pm 17.6 16.8 12.8 73 2.7 NE 9 13 5 7 1018.5 - 0.0
20/09:30pm 17.7 17.2 12.7 72 2.8 NE 7 11 4 6 1018.3 - 0.0
20/09:15pm 17.9 17.4 12.7 71 2.9 ENE 7 9 4 5 1018.1 - 0.0
20/09:00pm 18.2 17.7 12.8 71 3.0 ENE 7 13 4 7 1017.9 - 0.0
20/08:45pm 18.4 17.6 12.8 70 3.2 ENE 9 13 5 7 1017.7 - 0.0
20/08:30pm 18.5 17.7 12.8 69 3.2 ENE 9 15 5 8 1017.5 - 0.0
20/08:15pm 18.8 17.6 12.8 68 3.4 ENE 11 19 6 10 1017.2 - 0.0
20/08:00pm 19.1 17.5 12.8 67 3.6 ENE 13 19 7 10 1017.1 - 0.0
20/07:45pm 19.4 17.8 12.7 65 3.8 ENE 13 20 7 11 1016.9 - 0.0
20/07:30pm 19.6 16.8 12.6 64 4.0 ENE 19 24 10 13 1016.7 - 0.0
20/07:15pm 19.8 17.7 12.4 62 4.2 ENE 15 20 8 11 1016.6 - 0.0
20/07:00pm 20.4 18.0 12.5 60 4.5 ENE 17 22 9 12 1016.4 - 0.0
20/06:45pm 20.7 18.6 12.5 59 4.7 ENE 15 22 8 12 1016.2 - 0.0
20/06:30pm 21.1 19.5 12.8 59 4.7 ENE 13 20 7 11 1015.9 - 0.0
20/06:15pm 20.9 18.5 12.5 58 4.8 ENE 17 26 9 14 1015.7 - 0.0
20/06:00pm 21.4 19.0 12.7 57 5.0 ENE 17 24 9 13 1015.5 - 0.0
20/05:45pm 21.4 18.7 12.8 58 4.9 ENE 19 28 10 15 1015.5 - 0.0
20/05:30pm 21.6 19.4 13.2 59 4.8 E 17 24 9 13 1015.5 - 0.0
20/05:15pm 21.0 18.3 12.9 60 4.6 E 19 30 10 16 1015.5 - 0.0
20/05:00pm 21.0 17.7 12.7 59 4.7 E 22 28 12 15 1015.6 - 0.0
20/04:45pm 21.5 18.8 13.0 58 4.9 E 19 28 10 15 1015.6 - 0.0
20/04:30pm 21.4 18.5 12.8 58 4.9 E 20 30 11 16 1015.7 - 0.0
20/04:15pm 21.6 18.7 13.0 58 4.9 E 20 32 11 17 1015.8 - 0.0
20/04:00pm 21.6 18.9 12.9 57 5.0 E 19 28 10 15 1015.9 - 0.0
20/03:45pm 22.0 19.3 12.9 56 5.2 E 19 30 10 16 1016.0 - 0.0
20/03:30pm 21.9 18.6 12.7 56 5.3 E 22 33 12 18 1016.1 - 0.0
20/03:15pm 22.2 19.5 13.0 56 5.3 E 19 30 10 16 1016.1 - 0.0
20/03:00pm 22.6 20.4 13.2 55 5.4 E 17 28 9 15 1016.1 - 0.0
20/02:45pm 22.6 19.8 13.2 55 5.4 E 20 28 11 15 1016.2 - 0.0
20/02:30pm 22.3 20.1 13.3 56 5.2 E 17 28 9 15 1016.2 - 0.0
20/02:15pm 22.3 20.0 12.9 55 5.4 E 17 32 9 17 1016.3 - 0.0
20/02:00pm 22.4 21.3 13.0 55 5.4 ENE 11 20 6 11 1016.4 - 0.0
20/01:45pm 22.2 20.3 13.0 56 5.3 E 15 28 8 15 1016.7 - 0.0
20/01:30pm 21.7 19.3 12.6 56 5.2 ENE 17 26 9 14 1016.8 - 0.0
20/01:15pm 22.3 20.3 12.6 54 5.6 ENE 15 28 8 15 1016.9 - 0.0
20/01:00pm 22.6 21.0 12.7 53 5.7 ENE 13 19 7 10 1017.1 - 0.0
20/12:45pm 22.6 20.9 12.5 53 5.8 ENE 13 19 7 10 1017.2 - 0.0
20/12:30pm 22.0 20.9 11.8 52 5.8 NNE 9 15 5 8 1017.4 - 0.0
20/12:15pm 21.9 21.2 11.9 53 5.6 N 7 19 4 10 1017.5 - 0.0
20/12:00pm 21.8 21.3 12.1 54 5.5 NNE 6 15 3 8 1017.6 - 0.0
20/11:45am 21.5 20.8 12.1 55 5.3 ENE 7 15 4 8 1017.8 - 0.0
20/11:30am 21.4 21.1 12.6 57 5.0 NE 6 13 3 7 1017.9 - 0.0
20/11:15am 20.5 20.0 12.2 59 4.7 NE 6 13 3 7 1018.0 - 0.0
20/11:00am 20.8 19.5 12.5 59 4.7 ENE 11 19 6 10 1018.0 - 0.0
20/10:45am 20.3 19.7 12.3 60 4.5 ENE 7 13 4 7 1018.1 - 0.0
20/10:30am 20.1 20.0 12.0 59 4.5 E 4 9 2 5 1018.2 - 0.0
20/10:15am 19.3 18.9 12.4 64 3.9 ENE 6 11 3 6 1018.2 - 0.0
20/10:00am 18.6 17.9 11.5 63 3.9 NNE 6 7 3 4 1018.2 - 0.0
20/09:45am 19.1 18.8 11.5 61 4.2 E 4 9 2 5 1018.3 - 0.0
20/09:30am 20.0 19.5 12.1 60 4.4 ENE 6 11 3 6 1018.3 - 0.0
20/09:15am 19.6 19.1 12.1 62 4.2 E 6 13 3 7 1018.4 - 0.0
20/09:00am 18.9 18.1 11.8 63 3.9 ESE 7 15 4 8 1018.3 - 0.0
20/08:45am 18.6 17.5 12.0 65 3.7 E 9 13 5 7 1018.4 - 0.0
20/08:30am 18.4 18.1 12.8 70 3.2 ESE 6 9 3 5 1018.4 - 0.0
20/08:15am 17.7 17.5 13.0 74 2.7 SE 6 7 3 4 1018.3 - 0.0
20/08:00am 17.0 17.3 13.4 79 2.0 S 4 7 2 4 1018.3 - 0.0
20/07:45am 16.2 15.9 12.7 80 1.9 SSE 6 7 3 4 1018.1 - 0.0
20/07:30am 15.8 15.4 12.4 80 1.9 SSE 6 7 3 4 1017.9 - 0.0
20/07:15am 15.6 15.2 12.3 81 1.8 SSE 6 7 3 4 1017.8 - 0.0
20/07:00am 15.4 14.8 12.2 81 1.8 SSE 7 7 4 4 1017.7 - 0.0
20/06:45am 15.3 14.7 12.3 82 1.6 SSE 7 9 4 5 1017.6 - 0.0
20/06:30am 15.0 14.5 12.1 83 1.6 SSE 6 7 3 4 1017.5 - 0.0
20/06:15am 14.5 13.9 11.8 84 1.5 SSE 6 7 3 4 1017.4 - 0.0
20/06:00am 14.3 13.6 11.5 83 1.5 SSE 6 7 3 4 1017.4 - 0.0
20/05:45am 14.4 13.5 11.4 82 1.6 SSE 7 9 4 5 1017.4 - 0.0
20/05:30am 14.6 13.7 11.5 82 1.7 SSE 7 9 4 5 1017.3 - 0.0
20/05:15am 14.9 13.7 11.7 81 1.7 SSE 9 11 5 6 1017.2 - 0.0
20/05:00am 14.9 13.7 11.7 81 1.7 SSE 9 11 5 6 1017.2 - 0.0
20/04:45am 15.0 13.8 11.7 80 1.8 S 9 15 5 8 1017.1 - 0.0
20/04:30am 15.1 13.9 11.6 79 1.9 S 9 13 5 7 1017.0 - 0.0
20/04:15am 15.2 13.6 11.5 78 2.0 S 11 13 6 7 1017.0 - 0.0
20/04:00am 15.4 13.8 11.5 77 2.1 S 11 15 6 8 1017.0 - 0.0
20/03:45am 15.5 13.9 11.4 76 2.2 SSE 11 15 6 8 1017.1 - 0.0
20/03:30am 15.7 14.8 11.4 75 2.3 S 7 9 4 5 1017.1 - 0.0
20/03:15am 15.8 14.6 11.5 75 2.3 SSE 9 13 5 7 1017.1 - 0.0

Other Formats:

Comma delimited format used in spreadsheet applications
http://www.bom.gov.au/fwo/IDN60801/IDN60801.95757.axf

JavaScript Object Notation format (JSON) in row-major order
http://www.bom.gov.au/fwo/IDN60801/IDN60801.95757.json